createdAt,value
2023-11-01T00:01:36.765Z,8.60
2023-11-01T00:04:03.655Z,8.80
2023-11-01T00:06:30.423Z,9.70
2023-11-01T00:08:57.502Z,8.70
2023-11-01T00:11:24.231Z,8.70
2023-11-01T00:13:50.871Z,8.80
2023-11-01T00:16:17.650Z,8.80
2023-11-01T00:18:44.332Z,8.80
2023-11-01T00:21:11.071Z,8.80
2023-11-01T00:23:37.801Z,8.80
2023-11-01T00:26:04.681Z,8.80
2023-11-01T00:28:31.333Z,8.90
2023-11-01T00:30:58.207Z,8.90
2023-11-01T00:33:24.965Z,8.90
2023-11-01T00:35:51.958Z,9.00
2023-11-01T00:38:25.338Z,9.00
2023-11-01T00:40:52.151Z,9.00
2023-11-01T00:43:19.127Z,9.10
2023-11-01T00:45:45.939Z,9.10
2023-11-01T00:48:12.631Z,9.10
2023-11-01T00:50:39.346Z,9.10
2023-11-01T00:53:05.980Z,9.20
2023-11-01T00:55:32.727Z,9.20
2023-11-01T00:57:59.407Z,9.20
2023-11-01T01:00:26.257Z,9.20
2023-11-01T01:02:53.016Z,9.20
2023-11-01T01:05:20.145Z,9.20
2023-11-01T01:07:47.377Z,9.20
2023-11-01T01:10:13.967Z,9.20
2023-11-01T01:12:40.637Z,9.20
2023-11-01T01:15:07.411Z,9.20
2023-11-01T01:17:34.227Z,9.10
2023-11-01T01:20:01.019Z,9.20
2023-11-01T01:22:27.710Z,9.10
2023-11-01T01:24:54.603Z,9.10
2023-11-01T01:27:21.340Z,9.00
2023-11-01T01:29:48.571Z,9.00
2023-11-01T01:32:15.283Z,9.70
2023-11-01T01:34:42.193Z,9.00
2023-11-01T01:37:08.820Z,9.00
2023-11-01T01:39:35.482Z,8.90
2023-11-01T01:42:02.210Z,8.90
2023-11-01T01:44:28.837Z,8.90
2023-11-01T01:46:58.002Z,8.80
2023-11-01T01:49:32.753Z,8.80
2023-11-01T01:52:04.464Z,9.00
2023-11-01T01:54:31.560Z,8.70
2023-11-01T01:56:58.268Z,8.80
2023-11-01T01:59:24.973Z,8.70
2023-11-01T02:01:53.015Z,8.80
2023-11-01T02:04:19.629Z,8.70
2023-11-01T02:06:46.348Z,8.70
2023-11-01T02:09:19.012Z,8.80
2023-11-01T02:11:46.222Z,8.70
2023-11-01T02:14:13.251Z,8.80
2023-11-01T02:16:39.902Z,8.80
2023-11-01T02:19:08.437Z,8.80
2023-11-01T02:21:35.354Z,8.80
2023-11-01T02:24:02.285Z,8.80
2023-11-01T02:26:31.302Z,8.80
2023-11-01T02:28:58.312Z,8.80
2023-11-01T02:31:24.972Z,8.90
2023-11-01T02:33:51.614Z,8.90
2023-11-01T02:36:18.268Z,8.90
2023-11-01T02:38:45.128Z,8.90
2023-11-01T02:41:12.003Z,8.90
2023-11-01T02:43:38.910Z,9.00
2023-11-01T02:46:05.532Z,9.50
2023-11-01T02:48:32.254Z,9.00
2023-11-01T02:50:58.854Z,9.00
2023-11-01T02:53:25.486Z,9.00
2023-11-01T02:55:52.227Z,9.00
2023-11-01T02:58:19.291Z,9.00
2023-11-01T03:00:45.963Z,9.00
2023-11-01T03:03:12.839Z,9.00
2023-11-01T03:05:39.542Z,9.00
2023-11-01T03:08:06.187Z,9.00
2023-11-01T03:10:32.941Z,9.00
2023-11-01T03:12:59.655Z,9.00
2023-11-01T03:15:26.390Z,9.00
2023-11-01T03:17:53.087Z,9.00
2023-11-01T03:20:19.840Z,8.90
2023-11-01T03:22:46.725Z,8.90
2023-11-01T03:25:14.310Z,8.80
2023-11-01T03:27:41.019Z,8.90
2023-11-01T03:30:08.698Z,8.70
2023-11-01T03:32:35.628Z,8.70
2023-11-01T03:35:02.293Z,8.70
2023-11-01T03:37:28.982Z,8.70
2023-11-01T03:39:55.659Z,8.60
2023-11-01T03:42:23.070Z,8.60
2023-11-01T03:44:51.037Z,8.60
2023-11-01T03:47:18.010Z,8.50
2023-11-01T03:49:45.824Z,8.50
2023-11-01T03:52:12.769Z,8.40
2023-11-01T03:54:39.509Z,8.40
2023-11-01T03:57:06.352Z,8.30
2023-11-01T03:59:33.424Z,8.30
2023-11-01T04:02:00.389Z,8.20
2023-11-01T04:04:27.137Z,8.20
2023-11-01T04:06:53.811Z,8.20
2023-11-01T04:09:20.774Z,8.20
2023-11-01T04:11:47.460Z,8.10
2023-11-01T04:14:16.012Z,8.10
2023-11-01T04:16:42.936Z,8.10
2023-11-01T04:19:09.851Z,8.00
2023-11-01T04:21:36.557Z,8.00
2023-11-01T04:24:03.235Z,8.00
2023-11-01T04:26:30.722Z,7.90
2023-11-01T04:28:57.419Z,7.90
2023-11-01T04:31:25.518Z,7.90
2023-11-01T04:33:55.693Z,7.90
2023-11-01T04:36:28.533Z,7.90
2023-11-01T04:38:56.530Z,7.90
2023-11-01T04:41:24.638Z,7.80
2023-11-01T04:43:51.264Z,7.80
2023-11-01T04:46:17.903Z,7.90
2023-11-01T04:48:44.640Z,7.90
2023-11-01T04:51:11.384Z,7.90
2023-11-01T04:53:38.860Z,7.90
2023-11-01T04:56:07.186Z,8.00
2023-11-01T04:58:35.415Z,8.00
2023-11-01T05:01:02.138Z,8.00
2023-11-01T05:03:28.813Z,8.00
2023-11-01T05:05:55.502Z,8.00
2023-11-01T05:08:22.292Z,8.00
2023-11-01T05:10:48.982Z,8.00
2023-11-01T05:13:16.424Z,8.10
2023-11-01T05:15:43.106Z,8.10
2023-11-01T05:18:10.042Z,8.10
2023-11-01T05:20:37.317Z,8.10
2023-11-01T05:23:04.293Z,8.10
2023-11-01T05:25:31.153Z,8.10
2023-11-01T05:27:58.081Z,8.10
2023-11-01T05:30:25.122Z,8.10
2023-11-01T05:32:51.950Z,8.10
2023-11-01T05:35:18.899Z,8.10
2023-11-01T05:37:45.624Z,8.00
2023-11-01T05:40:15.811Z,8.00
2023-11-01T05:42:46.770Z,8.00
2023-11-01T05:45:18.335Z,7.90
2023-11-01T05:47:52.155Z,7.90
2023-11-01T05:50:21.159Z,7.80
2023-11-01T05:52:48.143Z,7.80
2023-11-01T05:55:23.822Z,7.80
2023-11-01T05:57:56.980Z,7.70
2023-11-01T06:00:24.177Z,7.70
2023-11-01T06:02:51.040Z,7.60
2023-11-01T06:05:17.928Z,7.60
2023-11-01T06:07:44.726Z,7.50
2023-11-01T06:10:11.786Z,7.50
2023-11-01T06:12:38.688Z,7.40
2023-11-01T06:15:05.884Z,7.40
2023-11-01T06:17:32.621Z,7.30
2023-11-01T06:19:59.426Z,7.40
2023-11-01T06:22:26.248Z,7.40
2023-11-01T06:24:52.966Z,7.40
2023-11-01T06:27:20.035Z,7.40
2023-11-01T06:29:47.226Z,7.40
2023-11-01T06:32:14.040Z,7.50
2023-11-01T06:34:41.106Z,7.60
2023-11-01T06:37:08.489Z,7.70
2023-11-01T06:39:35.501Z,7.70
2023-11-01T06:42:03.245Z,7.80
2023-11-01T06:44:30.053Z,7.80
2023-11-01T06:46:56.773Z,7.80
2023-11-01T06:49:23.660Z,7.90
2023-11-01T06:51:50.421Z,7.90
2023-11-01T06:54:17.189Z,7.90
2023-11-01T06:56:45.106Z,8.00
2023-11-01T06:59:12.767Z,8.00
2023-11-01T07:01:39.371Z,8.00
2023-11-01T07:04:06.562Z,8.00
2023-11-01T07:06:33.242Z,8.00
2023-11-01T07:09:00.002Z,8.00
2023-11-01T07:11:26.799Z,8.00
2023-11-01T07:13:53.567Z,8.00
2023-11-01T07:16:20.336Z,8.10
2023-11-01T07:18:47.863Z,8.10
2023-11-01T07:21:14.595Z,8.20
2023-11-01T07:23:41.387Z,8.20
2023-11-01T07:26:08.087Z,8.20
2023-11-01T07:28:35.232Z,8.30
2023-11-01T07:31:02.125Z,8.30
2023-11-01T07:33:29.315Z,8.30
2023-11-01T07:35:56.711Z,8.30
2023-11-01T07:38:23.416Z,8.40
2023-11-01T07:40:51.243Z,8.50
2023-11-01T07:43:17.945Z,8.80
2023-11-01T07:45:44.823Z,8.60
2023-11-01T07:48:11.682Z,8.80
2023-11-01T07:50:39.603Z,8.80
2023-11-01T07:53:06.748Z,8.90
2023-11-01T07:55:33.592Z,9.00
2023-11-01T07:58:00.247Z,9.00
2023-11-01T08:00:27.519Z,9.00
2023-11-01T08:02:57.206Z,9.10
2023-11-01T08:05:24.119Z,9.20
2023-11-01T08:07:51.033Z,9.20
2023-11-01T08:10:17.663Z,9.30
2023-11-01T08:12:44.842Z,9.30
2023-11-01T08:15:12.879Z,9.40
2023-11-01T08:17:39.572Z,9.40
2023-11-01T08:20:08.040Z,9.50
2023-11-01T08:22:36.126Z,9.40
2023-11-01T08:25:02.981Z,9.50
2023-11-01T08:27:30.033Z,9.50
2023-11-01T08:29:56.728Z,9.60
2023-11-01T08:32:23.463Z,9.60
2023-11-01T08:34:50.563Z,9.60
2023-11-01T08:37:17.429Z,9.70
2023-11-01T08:39:44.145Z,9.70
2023-11-01T08:42:10.770Z,9.80
2023-11-01T08:44:37.492Z,9.80
2023-11-01T08:47:10.138Z,9.80
2023-11-01T08:49:37.262Z,10.00
2023-11-01T08:52:03.998Z,9.90
2023-11-01T08:54:32.876Z,10.00
2023-11-01T08:56:59.602Z,10.00
2023-11-01T08:59:26.394Z,10.30
2023-11-01T09:02:02.115Z,10.20
2023-11-01T09:04:34.619Z,10.30
2023-11-01T09:07:01.224Z,10.40
2023-11-01T09:09:29.605Z,11.70
2023-11-01T09:11:56.476Z,10.50
2023-11-01T09:14:23.303Z,10.70
2023-11-01T09:16:50.221Z,10.70
2023-11-01T09:19:16.973Z,10.90
2023-11-01T09:21:43.733Z,11.00
2023-11-01T09:24:10.558Z,11.10
2023-11-01T09:26:37.447Z,11.10
2023-11-01T09:29:04.112Z,11.20
2023-11-01T09:31:35.640Z,11.20
2023-11-01T09:34:03.171Z,11.30
2023-11-01T09:36:29.905Z,11.30
2023-11-01T09:38:56.607Z,11.30
2023-11-01T09:41:28.717Z,11.40
2023-11-01T09:44:00.589Z,11.40
2023-11-01T09:46:27.596Z,11.50
2023-11-01T09:48:55.901Z,11.50
2023-11-01T09:51:22.698Z,11.60
2023-11-01T09:53:49.706Z,11.60
2023-11-01T09:56:17.705Z,11.60
2023-11-01T09:58:45.019Z,11.70
2023-11-01T10:01:12.024Z,11.90
2023-11-01T10:03:39.105Z,11.90
2023-11-01T10:06:09.153Z,11.90
2023-11-01T10:08:35.993Z,12.00
2023-11-01T10:11:03.566Z,12.10
2023-11-01T10:13:31.360Z,12.30
2023-11-01T10:15:58.329Z,12.30
2023-11-01T10:18:25.083Z,12.40
2023-11-01T10:20:51.949Z,12.80
2023-11-01T10:23:19.209Z,13.10
2023-11-01T10:25:46.369Z,12.60
2023-11-01T10:28:14.072Z,12.70
2023-11-01T10:30:45.120Z,12.80
2023-11-01T10:33:12.236Z,12.90
2023-11-01T10:35:39.293Z,13.80
2023-11-01T10:38:06.338Z,12.90
2023-11-01T10:40:33.065Z,13.00
2023-11-01T10:43:00.834Z,13.00
2023-11-01T10:45:27.637Z,13.10
2023-11-01T10:47:54.793Z,13.10
2023-11-01T10:50:21.857Z,13.20
2023-11-01T10:52:52.035Z,13.20
2023-11-01T10:55:20.055Z,13.30
2023-11-01T10:57:51.102Z,13.40
2023-11-01T11:00:30.247Z,13.50
2023-11-01T11:02:57.878Z,13.60
2023-11-01T11:05:27.427Z,13.70
2023-11-01T11:07:58.096Z,13.70
2023-11-01T11:10:34.720Z,13.70
2023-11-01T11:13:18.329Z,13.70
2023-11-01T11:15:48.472Z,13.70
2023-11-01T11:18:17.580Z,13.80
2023-11-01T11:20:44.362Z,13.80
2023-11-01T11:23:14.353Z,13.80
2023-11-01T11:25:44.232Z,13.70
2023-11-01T11:28:33.714Z,14.70
2023-11-01T11:31:12.865Z,13.60
2023-11-01T11:33:45.697Z,13.50
2023-11-01T11:36:12.671Z,13.40
2023-11-01T11:38:47.858Z,13.40
2023-11-01T11:41:15.423Z,13.30
2023-11-01T11:44:01.141Z,13.40
2023-11-01T11:46:28.505Z,13.40
2023-11-01T11:48:55.118Z,13.50
2023-11-01T11:51:22.096Z,13.50
2023-11-01T11:53:49.501Z,13.60
2023-11-01T11:56:20.136Z,14.60
2023-11-01T11:58:46.862Z,13.80
2023-11-01T12:01:28.968Z,14.70
2023-11-01T12:03:56.209Z,13.90
2023-11-01T12:06:25.215Z,14.10
2023-11-01T12:08:52.283Z,14.10
2023-11-01T12:11:19.156Z,14.70
2023-11-01T12:13:47.656Z,14.10
2023-11-01T12:16:27.377Z,14.10
2023-11-01T12:19:20.855Z,14.00
2023-11-01T12:21:51.734Z,13.90
2023-11-01T12:24:20.077Z,13.80
2023-11-01T12:26:55.947Z,13.70
2023-11-01T12:29:22.674Z,13.70
2023-11-01T12:32:06.167Z,13.80
2023-11-01T12:34:33.804Z,13.70
2023-11-01T12:37:04.933Z,13.70
2023-11-01T12:39:32.784Z,13.70
2023-11-01T12:42:19.502Z,14.10
2023-11-01T12:44:46.260Z,13.60
2023-11-01T12:47:13.220Z,13.60
2023-11-01T12:49:40.420Z,13.60
2023-11-01T12:52:08.311Z,13.50
2023-11-01T12:54:35.623Z,13.50
2023-11-01T12:57:02.905Z,13.50
2023-11-01T12:59:29.758Z,13.50
2023-11-01T13:01:56.473Z,13.50
2023-11-01T13:04:25.845Z,13.50
2023-11-01T13:06:53.661Z,13.50
2023-11-01T13:09:20.394Z,13.50
2023-11-01T13:11:47.595Z,13.50
2023-11-01T13:14:14.378Z,13.50
2023-11-01T13:16:43.393Z,13.50
2023-11-01T13:19:10.507Z,13.40
2023-11-01T13:21:37.699Z,14.40
2023-11-01T13:24:04.576Z,13.40
2023-11-01T13:26:31.449Z,13.30
2023-11-01T13:28:58.304Z,13.30
2023-11-01T13:31:24.953Z,13.50
2023-11-01T13:33:51.851Z,13.30
2023-11-01T13:36:18.645Z,13.20
2023-11-01T13:38:45.402Z,13.20
2023-11-01T13:41:12.115Z,13.20
2023-11-01T13:43:39.151Z,13.20
2023-11-01T13:46:06.005Z,13.20
2023-11-01T13:48:32.949Z,13.10
2023-11-01T13:50:59.816Z,13.20
2023-11-01T13:53:26.544Z,13.10
2023-11-01T13:55:53.281Z,13.10
2023-11-01T13:58:20.240Z,13.10
2023-11-01T14:00:47.574Z,13.10
2023-11-01T14:03:14.829Z,13.10
2023-11-01T14:05:42.029Z,13.10
2023-11-01T14:08:09.557Z,13.10
2023-11-01T14:10:36.510Z,12.90
2023-11-01T14:13:06.203Z,13.00
2023-11-01T14:15:33.758Z,13.00
2023-11-01T14:18:05.898Z,13.00
2023-11-01T14:20:32.883Z,13.00
2023-11-01T14:22:59.701Z,13.00
2023-11-01T14:25:26.336Z,13.00
2023-11-01T14:27:53.020Z,12.90
2023-11-01T14:30:20.145Z,12.90
2023-11-01T14:32:48.216Z,12.90
2023-11-01T14:35:15.080Z,12.90
2023-11-01T14:37:42.179Z,12.80
2023-11-01T14:40:10.368Z,12.80
2023-11-01T14:42:37.613Z,12.80
2023-11-01T14:45:07.273Z,12.70
2023-11-01T14:47:37.238Z,12.70
2023-11-01T14:50:06.066Z,12.60
2023-11-01T14:52:32.806Z,12.60
2023-11-01T14:54:59.509Z,12.60
2023-11-01T14:57:27.117Z,12.50
2023-11-01T14:59:54.649Z,12.50
2023-11-01T15:02:21.487Z,12.40
2023-11-01T15:04:50.917Z,13.10
2023-11-01T15:07:17.606Z,12.30
2023-11-01T15:09:44.394Z,13.50
2023-11-01T15:12:11.451Z,12.20
2023-11-01T15:14:38.186Z,12.20
2023-11-01T15:17:05.057Z,12.10
2023-11-01T15:19:32.137Z,12.70
2023-11-01T15:21:59.008Z,12.10
2023-11-01T15:24:28.896Z,12.00
2023-11-01T15:26:55.940Z,12.00
2023-11-01T15:29:23.104Z,12.00
2023-11-01T15:31:50.460Z,12.00
2023-11-01T15:34:18.050Z,12.50
2023-11-01T15:36:45.669Z,11.90
2023-11-01T15:39:15.729Z,12.70
2023-11-01T15:41:42.578Z,11.90
2023-11-01T15:44:09.615Z,11.90
2023-11-01T15:46:40.727Z,11.80
2023-11-01T15:49:08.597Z,11.80
2023-11-01T15:51:35.332Z,11.80
2023-11-01T15:54:02.116Z,11.80
2023-11-01T15:56:28.766Z,11.70
2023-11-01T15:58:55.726Z,11.70
2023-11-01T16:01:22.604Z,11.70
2023-11-01T16:03:49.605Z,11.70
2023-11-01T16:06:16.716Z,11.60
2023-11-01T16:08:43.576Z,11.60
2023-11-01T16:11:12.433Z,11.50
2023-11-01T16:13:39.167Z,11.50
2023-11-01T16:16:06.099Z,11.40
2023-11-01T16:18:32.849Z,11.40
2023-11-01T16:21:00.445Z,11.40
2023-11-01T16:23:27.868Z,11.40
2023-11-01T16:25:55.433Z,11.30
2023-11-01T16:28:23.620Z,11.30
2023-11-01T16:30:50.452Z,11.30
2023-11-01T16:33:17.248Z,11.30
2023-11-01T16:35:43.964Z,11.20
2023-11-01T16:38:10.656Z,11.20
2023-11-01T16:40:39.153Z,11.30
2023-11-01T16:43:05.777Z,11.20
2023-11-01T16:45:32.924Z,11.20
2023-11-01T16:47:59.732Z,11.20
2023-11-01T16:50:26.495Z,11.10
2023-11-01T16:52:54.689Z,11.10
2023-11-01T16:55:21.345Z,11.10
2023-11-01T16:57:48.058Z,11.10
2023-11-01T17:00:15.052Z,11.00
2023-11-01T17:02:47.923Z,11.00
2023-11-01T17:05:17.497Z,11.00
2023-11-01T17:07:44.198Z,10.90
2023-11-01T17:10:10.870Z,10.90
2023-11-01T17:12:37.542Z,10.90
2023-11-01T17:15:05.326Z,10.90
2023-11-01T17:17:32.204Z,10.80
2023-11-01T17:19:59.043Z,10.80
2023-11-01T17:22:34.554Z,10.80
2023-11-01T17:25:01.242Z,10.70
2023-11-01T17:27:27.994Z,10.80
2023-11-01T17:29:54.831Z,10.70
2023-11-01T17:32:22.585Z,10.70
2023-11-01T17:34:49.739Z,10.80
2023-11-01T17:37:16.435Z,10.60
2023-11-01T17:39:43.149Z,10.60
2023-11-01T17:42:12.347Z,10.60
2023-11-01T17:44:41.565Z,10.60
2023-11-01T17:47:11.871Z,10.50
2023-11-01T17:49:45.042Z,10.50
2023-11-01T17:52:12.293Z,10.50
2023-11-01T17:54:39.375Z,10.50
2023-11-01T17:57:07.111Z,10.50
2023-11-01T17:59:37.805Z,10.50
2023-11-01T18:02:27.236Z,10.40
2023-11-01T18:04:54.871Z,10.40
2023-11-01T18:07:21.828Z,10.40
2023-11-01T18:09:52.480Z,10.40
2023-11-01T18:12:19.203Z,10.40
2023-11-01T18:14:46.171Z,10.60
2023-11-01T18:17:13.790Z,10.60
2023-11-01T18:19:41.180Z,10.70
2023-11-01T18:22:27.866Z,10.80
2023-11-01T18:24:54.595Z,10.80
2023-11-01T18:27:21.906Z,10.80
2023-11-01T18:29:48.642Z,10.80
2023-11-01T18:32:15.445Z,10.80
2023-11-01T18:34:42.089Z,10.80
2023-11-01T18:37:08.814Z,10.80
2023-11-01T18:39:35.483Z,10.70
2023-11-01T18:42:02.158Z,10.70
2023-11-01T18:44:40.541Z,10.80
2023-11-01T18:47:08.066Z,10.80
2023-11-01T18:49:53.464Z,10.70
2023-11-01T18:52:21.658Z,10.70
2023-11-01T18:54:49.624Z,10.80
2023-11-01T18:57:31.842Z,10.70
2023-11-01T18:59:58.714Z,10.70
2023-11-01T19:02:35.308Z,10.80
2023-11-01T19:05:05.033Z,10.70
2023-11-01T19:07:32.777Z,10.80
2023-11-01T19:09:59.745Z,10.70
2023-11-01T19:12:30.774Z,10.70
2023-11-01T19:14:58.043Z,10.60
2023-11-01T19:17:26.740Z,10.60
2023-11-01T19:19:53.439Z,10.90
2023-11-01T19:22:20.122Z,11.20
2023-11-01T19:24:47.031Z,10.50
2023-11-01T19:27:21.415Z,10.50
2023-11-01T19:29:50.626Z,10.50
2023-11-01T19:32:17.357Z,10.40
2023-11-01T19:34:44.084Z,10.40
2023-11-01T19:37:10.762Z,10.40
2023-11-01T19:39:37.659Z,11.00
2023-11-01T19:42:04.592Z,10.40
2023-11-01T19:44:31.315Z,10.40
2023-11-01T19:46:58.037Z,10.50
2023-11-01T19:49:24.670Z,10.30
2023-11-01T19:51:51.426Z,10.30
2023-11-01T19:54:19.173Z,10.30
2023-11-01T19:56:46.073Z,10.20
2023-11-01T19:59:12.873Z,10.20
2023-11-01T20:01:40.583Z,10.10
2023-11-01T20:04:07.431Z,10.10
2023-11-01T20:06:34.111Z,10.00
2023-11-01T20:09:01.070Z,10.00
2023-11-01T20:11:28.962Z,9.90
2023-11-01T20:13:56.105Z,10.80
2023-11-01T20:16:30.242Z,10.10
2023-11-01T20:18:57.871Z,9.80
2023-11-01T20:21:24.599Z,9.80
2023-11-01T20:23:51.569Z,10.40
2023-11-01T20:26:18.491Z,9.70
2023-11-01T20:28:45.209Z,9.60
2023-11-01T20:31:11.980Z,9.60
2023-11-01T20:33:38.937Z,9.60
2023-11-01T20:36:06.329Z,9.50
2023-11-01T20:38:34.085Z,9.50
2023-11-01T20:41:00.872Z,9.50
2023-11-01T20:43:29.833Z,9.50
2023-11-01T20:45:56.915Z,9.40
2023-11-01T20:48:23.757Z,9.40
2023-11-01T20:50:50.541Z,9.40
2023-11-01T20:53:17.687Z,9.40
2023-11-01T20:55:45.020Z,9.40
2023-11-01T20:58:11.667Z,9.30
2023-11-01T21:00:38.534Z,9.30
2023-11-01T21:03:05.785Z,9.30
2023-11-01T21:05:34.799Z,9.30
2023-11-01T21:08:01.589Z,10.00
2023-11-01T21:10:29.955Z,9.30
2023-11-01T21:12:56.800Z,9.30
2023-11-01T21:15:23.544Z,9.20
2023-11-01T21:17:51.285Z,9.20
2023-11-01T21:20:18.248Z,9.10
2023-11-01T21:22:45.038Z,9.00
2023-11-01T21:25:14.052Z,8.90
2023-11-01T21:27:40.921Z,8.80
2023-11-01T21:30:08.985Z,8.60
2023-11-01T21:32:36.150Z,8.60
2023-11-01T21:35:03.027Z,8.30
2023-11-01T21:37:29.743Z,8.40
2023-11-01T21:39:56.768Z,8.30
2023-11-01T21:42:24.574Z,8.30
2023-11-01T21:44:51.340Z,8.30
2023-11-01T21:47:23.570Z,8.30
2023-11-01T21:49:50.260Z,8.30
2023-11-01T21:52:17.335Z,8.30
2023-11-01T21:54:44.074Z,8.20
2023-11-01T21:57:12.639Z,8.10
2023-11-01T21:59:42.573Z,8.00
2023-11-01T22:02:14.475Z,8.00
2023-11-01T22:04:46.388Z,8.00
2023-11-01T22:07:16.157Z,7.90
2023-11-01T22:09:43.163Z,8.00
2023-11-01T22:12:09.947Z,8.00
2023-11-01T22:14:39.257Z,8.00
2023-11-01T22:17:08.072Z,8.00
2023-11-01T22:19:37.822Z,9.60
2023-11-01T22:22:09.225Z,8.10
2023-11-01T22:24:37.674Z,9.00
2023-11-01T22:27:09.954Z,9.20
2023-11-01T22:29:39.847Z,7.80
2023-11-01T22:32:06.805Z,7.70
2023-11-01T22:34:35.355Z,7.60
2023-11-01T22:37:04.516Z,7.50
2023-11-01T22:39:34.233Z,7.40
2023-11-01T22:42:04.267Z,7.40
2023-11-01T22:44:31.226Z,7.30
2023-11-01T22:46:57.928Z,7.30
2023-11-01T22:49:24.842Z,7.30
2023-11-01T22:51:51.457Z,7.20
2023-11-01T22:54:18.348Z,7.30
2023-11-01T22:56:45.186Z,7.30
2023-11-01T22:59:11.793Z,7.20
2023-11-01T23:01:38.494Z,7.20
2023-11-01T23:04:05.917Z,7.10
2023-11-01T23:06:32.874Z,7.10
2023-11-01T23:08:59.563Z,7.00
2023-11-01T23:11:26.207Z,6.90
2023-11-01T23:13:52.810Z,6.90
2023-11-01T23:16:19.532Z,6.90
2023-11-01T23:18:46.315Z,6.90
2023-11-01T23:21:13.089Z,6.70
2023-11-01T23:23:39.769Z,6.60
2023-11-01T23:26:06.754Z,6.60
2023-11-01T23:28:43.077Z,6.50
2023-11-01T23:31:10.908Z,6.50
2023-11-01T23:33:38.864Z,6.40
2023-11-01T23:36:13.909Z,6.30
2023-11-01T23:38:47.258Z,6.20
2023-11-01T23:41:32.852Z,6.20
2023-11-01T23:44:00.665Z,6.20
2023-11-01T23:46:28.215Z,6.00
2023-11-01T23:48:55.621Z,6.00
2023-11-01T23:51:37.750Z,6.00
2023-11-01T23:54:14.040Z,5.90
2023-11-01T23:56:40.829Z,5.90
2023-11-01T23:59:07.616Z,5.90
